Aviation Digital Data Service (ADDS)

Output produced by METARs form (1739 UTC 27 May 2017)
found at http://www.aviationweather.gov/adds/metars/
 
FMMI 271730Z 00000KT 9999 FEW020 16/13 Q1023 NOSIG
TAF FMMI 271700Z 2718/2824 VRB03KT 9999 FEW020 
     PROB40 2801/2806 0500 FG
       
TAF FMNA 271700Z 2718/2818 14010KT 9999 SCT020 SCT040 
     PROB30 
     TEMPO 2800/2803 SHRA
       
FMNM 271700Z 34004KT CAVOK 26/22 Q1014 NOSIG
TAF FMNM 271700Z 2718/2818 14005KT 9999 FEW020 
     BECMG 2807/2810 30010KT
       
FMNN 271500Z 21002KT 9999 FEW020 27/23 Q1013
TAF FMNN 271700Z 2718/2818 20005KT 9999 SCT020 SCT40 
     PROB30 
     TEMPO 2800/2803 SHRA 
     BECMG 2806/2809 26010KT
       
TAF FMMS 271700Z 2718/2818 20008KT 9999 SCT017 BKN033 
     PROB40 
     TEMPO 2718/2806 4500 SHRA
       
FMMT 271700Z 14002KT 9999 SCT017 BKN033 25/23 Q1017 NOSIG
TAF FMMT 271700Z 2718/2818 00000KT 9999 SCT017 BKN033 
     PROB40 
     TEMPO 2718/2806 4000 SHRA 
     BECMG 2804/2807 16010KT
       
FMSD 271700Z 06008KT 9999 FEW020 BKN100 24/21 Q1015
TAF FMSD 271700Z 2718/2818 VRB04KT 9999 FEW016 SCT033
       
TAF FMST 271700Z 2718/2818 VRB03KT 9999 SCT020 SCT040 
     BECMG 2805/2808 22010KT